sensor_id;sensor_type;location;lat;lon;timestamp;pressure;altitude;pressure_sealevel;temperature;humidity
43818;BME280;29868;47.360;18.984;2023-05-08T00:00:17;100765.91;;;8.39;100.00
43818;BME280;29868;47.360;18.984;2023-05-08T00:02:42;100763.91;;;8.31;100.00
43818;BME280;29868;47.360;18.984;2023-05-08T00:05:08;100767.25;;;8.28;100.00
43818;BME280;29868;47.360;18.984;2023-05-08T00:07:35;100768.75;;;8.21;100.00
43818;BME280;29868;47.360;18.984;2023-05-08T00:10:00;100766.91;;;8.17;100.00
43818;BME280;29868;47.360;18.984;2023-05-08T00:12:26;100771.53;;;8.26;100.00
43818;BME280;29868;47.360;18.984;2023-05-08T00:14:51;100772.22;;;8.22;100.00
43818;BME280;29868;47.360;18.984;2023-05-08T00:17:16;100771.31;;;8.20;100.00
43818;BME280;29868;47.360;18.984;2023-05-08T00:19:42;100775.16;;;8.05;100.00
43818;BME280;29868;47.360;18.984;2023-05-08T00:22:07;100776.41;;;7.91;100.00
43818;BME280;29868;47.360;18.984;2023-05-08T00:24:33;100775.28;;;7.83;100.00
43818;BME280;29868;47.360;18.984;2023-05-08T00:26:58;100771.59;;;7.76;100.00
43818;BME280;29868;47.360;18.984;2023-05-08T00:29:23;100773.25;;;7.73;100.00
43818;BME280;29868;47.360;18.984;2023-05-08T00:31:49;100776.38;;;7.64;100.00
43818;BME280;29868;47.360;18.984;2023-05-08T00:34:14;100779.50;;;7.54;100.00
43818;BME280;29868;47.360;18.984;2023-05-08T00:36:40;100783.56;;;7.47;100.00
43818;BME280;29868;47.360;18.984;2023-05-08T00:39:05;100776.53;;;7.43;100.00
43818;BME280;29868;47.360;18.984;2023-05-08T00:41:30;100780.03;;;7.45;100.00
43818;BME280;29868;47.360;18.984;2023-05-08T00:43:56;100783.34;;;7.41;100.00
43818;BME280;29868;47.360;18.984;2023-05-08T00:46:21;100790.78;;;7.32;100.00
43818;BME280;29868;47.360;18.984;2023-05-08T00:48:47;100786.25;;;7.26;100.00
43818;BME280;29868;47.360;18.984;2023-05-08T00:51:13;100791.31;;;7.23;100.00
43818;BME280;29868;47.360;18.984;2023-05-08T00:53:41;100795.53;;;7.20;100.00
43818;BME280;29868;47.360;18.984;2023-05-08T00:56:09;100787.56;;;7.15;100.00
43818;BME280;29868;47.360;18.984;2023-05-08T00:58:36;100787.56;;;7.15;100.00
43818;BME280;29868;47.360;18.984;2023-05-08T01:01:02;100792.63;;;7.12;100.00
43818;BME280;29868;47.360;18.984;2023-05-08T01:03:29;100793.41;;;7.10;100.00
43818;BME280;29868;47.360;18.984;2023-05-08T01:05:56;100800.28;;;7.09;100.00
43818;BME280;29868;47.360;18.984;2023-05-08T01:08:22;100796.81;;;7.09;100.00
43818;BME280;29868;47.360;18.984;2023-05-08T01:16:16;100805.25;;;7.04;100.00
43818;BME280;29868;47.360;18.984;2023-05-08T01:19:05;100810.66;;;7.11;100.00
43818;BME280;29868;47.360;18.984;2023-05-08T01:21:55;100806.34;;;7.10;100.00
43818;BME280;29868;47.360;18.984;2023-05-08T01:24:41;100810.66;;;7.11;100.00
43818;BME280;29868;47.360;18.984;2023-05-08T01:32:28;100822.75;;;7.12;100.00
43818;BME280;29868;47.360;18.984;2023-05-08T01:35:21;100822.66;;;7.09;100.00
43818;BME280;29868;47.360;18.984;2023-05-08T01:40:33;100826.91;;;7.08;100.00
43818;BME280;29868;47.360;18.984;2023-05-08T01:45:45;100819.00;;;7.03;100.00
43818;BME280;29868;47.360;18.984;2023-05-08T01:48:17;100826.03;;;7.07;100.00
43818;BME280;29868;47.360;18.984;2023-05-08T01:50:46;100824.41;;;7.10;100.00
43818;BME280;29868;47.360;18.984;2023-05-08T01:53:19;100825.69;;;7.21;100.00
43818;BME280;29868;47.360;18.984;2023-05-08T01:55:47;100824.22;;;7.27;100.00
43818;BME280;29868;47.360;18.984;2023-05-08T01:58:15;100825.81;;;7.24;100.00
43818;BME280;29868;47.360;18.984;2023-05-08T02:00:41;100830.84;;;7.21;100.00
43818;BME280;29868;47.360;18.984;2023-05-08T02:03:09;100833.44;;;7.21;100.00
43818;BME280;29868;47.360;18.984;2023-05-08T02:05:37;100830.78;;;7.19;100.00
43818;BME280;29868;47.360;18.984;2023-05-08T02:08:03;100836.75;;;7.17;100.00
43818;BME280;29868;47.360;18.984;2023-05-08T02:10:30;100837.22;;;7.30;100.00
43818;BME280;29868;47.360;18.984;2023-05-08T02:12:58;100837.63;;;7.17;100.00
43818;BME280;29868;47.360;18.984;2023-05-08T02:15:26;100839.78;;;7.06;100.00
43818;BME280;29868;47.360;18.984;2023-05-08T02:17:54;100837.91;;;7.02;100.00
43818;BME280;29868;47.360;18.984;2023-05-08T02:20:20;100846.25;;;6.95;100.00
43818;BME280;29868;47.360;18.984;2023-05-08T02:22:49;100841.78;;;6.91;100.00
43818;BME280;29868;47.360;18.984;2023-05-08T02:25:15;100848.41;;;6.85;100.00
43818;BME280;29868;47.360;18.984;2023-05-08T02:27:42;100842.38;;;6.84;100.00
43818;BME280;29868;47.360;18.984;2023-05-08T02:30:11;100845.66;;;6.80;100.00
43818;BME280;29868;47.360;18.984;2023-05-08T02:32:40;100846.22;;;6.71;100.00
43818;BME280;29868;47.360;18.984;2023-05-08T02:35:07;100841.78;;;6.69;100.00
43818;BME280;29868;47.360;18.984;2023-05-08T02:37:33;100840.66;;;6.62;100.00
43818;BME280;29868;47.360;18.984;2023-05-08T02:40:00;100848.22;;;6.57;100.00
43818;BME280;29868;47.360;18.984;2023-05-08T02:42:27;100846.78;;;6.64;100.00
43818;BME280;29868;47.360;18.984;2023-05-08T02:44:53;100850.38;;;6.68;100.00
43818;BME280;29868;47.360;18.984;2023-05-08T02:47:26;100851.00;;;6.62;100.00
43818;BME280;29868;47.360;18.984;2023-05-08T02:49:56;100846.59;;;6.60;100.00
43818;BME280;29868;47.360;18.984;2023-05-08T02:52:29;100853.28;;;6.54;100.00
43818;BME280;29868;47.360;18.984;2023-05-08T02:55:01;100855.72;;;6.51;100.00
43818;BME280;29868;47.360;18.984;2023-05-08T03:00:41;100859.47;;;6.37;100.00
43818;BME280;29868;47.360;18.984;2023-05-08T03:03:16;100864.63;;;6.37;100.00
43818;BME280;29868;47.360;18.984;2023-05-08T03:05:48;100863.69;;;6.35;100.00
43818;BME280;29868;47.360;18.984;2023-05-08T03:08:18;100854.53;;;6.43;100.00
43818;BME280;29868;47.360;18.984;2023-05-08T03:10:48;100854.31;;;6.37;100.00
43818;BME280;29868;47.360;18.984;2023-05-08T03:13:15;100851.59;;;6.34;100.00
43818;BME280;29868;47.360;18.984;2023-05-08T03:15:54;100852.53;;;6.36;100.00
43818;BME280;29868;47.360;18.984;2023-05-08T03:18:24;100856.06;;;6.38;100.00
43818;BME280;29868;47.360;18.984;2023-05-08T03:20:54;100853.31;;;6.33;100.00
43818;BME280;29868;47.360;18.984;2023-05-08T03:23:22;100847.44;;;6.38;100.00
43818;BME280;29868;47.360;18.984;2023-05-08T03:25:49;100857.94;;;6.42;100.00
43818;BME280;29868;47.360;18.984;2023-05-08T03:28:16;100860.66;;;6.45;100.00
43818;BME280;29868;47.360;18.984;2023-05-08T03:30:43;100859.22;;;6.52;100.00
43818;BME280;29868;47.360;18.984;2023-05-08T03:33:10;100851.66;;;6.56;100.00
43818;BME280;29868;47.360;18.984;2023-05-08T03:35:37;100856.34;;;6.67;100.00
43818;BME280;29868;47.360;18.984;2023-05-08T03:38:04;100865.19;;;6.73;100.00
43818;BME280;29868;47.360;18.984;2023-05-08T03:40:29;100867.28;;;6.82;100.00
43818;BME280;29868;47.360;18.984;2023-05-08T03:42:55;100868.50;;;6.92;100.00
43818;BME280;29868;47.360;18.984;2023-05-08T03:45:22;100864.19;;;7.15;100.00
43818;BME280;29868;47.360;18.984;2023-05-08T03:47:50;100871.81;;;7.34;100.00
43818;BME280;29868;47.360;18.984;2023-05-08T03:50:17;100869.97;;;7.54;100.00
43818;BME280;29868;47.360;18.984;2023-05-08T03:52:43;100860.81;;;7.64;100.00
43818;BME280;29868;47.360;18.984;2023-05-08T03:55:09;100865.69;;;7.80;100.00
43818;BME280;29868;47.360;18.984;2023-05-08T03:57:39;100865.41;;;7.96;100.00
43818;BME280;29868;47.360;18.984;2023-05-08T04:00:13;100868.81;;;8.21;100.00
43818;BME280;29868;47.360;18.984;2023-05-08T04:02:49;100872.88;;;8.38;100.00
43818;BME280;29868;47.360;18.984;2023-05-08T04:05:35;100866.53;;;8.56;100.00
43818;BME280;29868;47.360;18.984;2023-05-08T04:08:24;100870.41;;;8.68;100.00
43818;BME280;29868;47.360;18.984;2023-05-08T04:11:14;100876.09;;;8.85;100.00
43818;BME280;29868;47.360;18.984;2023-05-08T04:13:55;100878.06;;;8.94;100.00
43818;BME280;29868;47.360;18.984;2023-05-08T04:16:26;100890.47;;;9.04;100.00
43818;BME280;29868;47.360;18.984;2023-05-08T04:19:08;100892.66;;;9.19;100.00
43818;BME280;29868;47.360;18.984;2023-05-08T04:21:35;100896.41;;;9.29;100.00
43818;BME280;29868;47.360;18.984;2023-05-08T04:24:06;100903.06;;;9.50;100.00
43818;BME280;29868;47.360;18.984;2023-05-08T04:26:32;100901.13;;;9.73;100.00
43818;BME280;29868;47.360;18.984;2023-05-08T04:28:59;100904.06;;;9.86;100.00
43818;BME280;29868;47.360;18.984;2023-05-08T04:31:25;100900.00;;;9.95;100.00
43818;BME280;29868;47.360;18.984;2023-05-08T04:33:51;100901.47;;;10.19;100.00
43818;BME280;29868;47.360;18.984;2023-05-08T04:36:17;100909.34;;;10.22;100.00
43818;BME280;29868;47.360;18.984;2023-05-08T04:38:42;100910.88;;;10.45;100.00
43818;BME280;29868;47.360;18.984;2023-05-08T04:41:08;100916.09;;;10.47;100.00
43818;BME280;29868;47.360;18.984;2023-05-08T04:43:34;100912.69;;;10.50;100.00
43818;BME280;29868;47.360;18.984;2023-05-08T04:46:00;100917.34;;;10.64;100.00
43818;BME280;29868;47.360;18.984;2023-05-08T04:48:26;100919.94;;;10.63;100.00
43818;BME280;29868;47.360;18.984;2023-05-08T04:50:51;100930.75;;;10.80;100.00
43818;BME280;29868;47.360;18.984;2023-05-08T04:53:17;100926.94;;;10.67;100.00
43818;BME280;29868;47.360;18.984;2023-05-08T04:55:42;100933.78;;;10.63;100.00
43818;BME280;29868;47.360;18.984;2023-05-08T04:58:09;100941.88;;;10.76;100.00
43818;BME280;29868;47.360;18.984;2023-05-08T05:00:35;100938.72;;;10.87;100.00
43818;BME280;29868;47.360;18.984;2023-05-08T05:03:00;100945.81;;;10.60;100.00
43818;BME280;29868;47.360;18.984;2023-05-08T05:05:26;100936.97;;;10.52;100.00
43818;BME280;29868;47.360;18.984;2023-05-08T05:07:51;100937.13;;;10.58;100.00
43818;BME280;29868;47.360;18.984;2023-05-08T05:10:17;100946.38;;;10.83;100.00
43818;BME280;29868;47.360;18.984;2023-05-08T05:12:42;100946.44;;;10.84;100.00
43818;BME280;29868;47.360;18.984;2023-05-08T05:15:08;100947.34;;;10.86;100.00
43818;BME280;29868;47.360;18.984;2023-05-08T05:17:34;100953.91;;;10.70;100.00
43818;BME280;29868;47.360;18.984;2023-05-08T05:19:59;100948.34;;;10.91;100.00
43818;BME280;29868;47.360;18.984;2023-05-08T05:22:25;100951.31;;;11.07;100.00
43818;BME280;29868;47.360;18.984;2023-05-08T05:24:50;100951.81;;;11.30;100.00
43818;BME280;29868;47.360;18.984;2023-05-08T05:27:15;100958.16;;;11.42;100.00
43818;BME280;29868;47.360;18.984;2023-05-08T05:29:41;100959.13;;;11.48;100.00
43818;BME280;29868;47.360;18.984;2023-05-08T05:32:07;100956.16;;;11.29;100.00
43818;BME280;29868;47.360;18.984;2023-05-08T05:34:34;100961.69;;;11.44;100.00
43818;BME280;29868;47.360;18.984;2023-05-08T05:36:59;100964.22;;;11.43;100.00
43818;BME280;29868;47.360;18.984;2023-05-08T05:39:25;100961.50;;;11.37;100.00
43818;BME280;29868;47.360;18.984;2023-05-08T05:41:50;100967.25;;;11.63;100.00
43818;BME280;29868;47.360;18.984;2023-05-08T05:44:16;100963.16;;;11.74;100.00
43818;BME280;29868;47.360;18.984;2023-05-08T05:46:42;100972.94;;;11.84;100.00
43818;BME280;29868;47.360;18.984;2023-05-08T05:49:07;100969.84;;;12.04;100.00
43818;BME280;29868;47.360;18.984;2023-05-08T05:51:33;100972.94;;;12.28;100.00
43818;BME280;29868;47.360;18.984;2023-05-08T05:53:58;100981.44;;;12.20;100.00
43818;BME280;29868;47.360;18.984;2023-05-08T05:56:24;100981.34;;;12.13;100.00
43818;BME280;29868;47.360;18.984;2023-05-08T05:58:49;100975.97;;;12.06;100.00
43818;BME280;29868;47.360;18.984;2023-05-08T06:01:15;100973.72;;;12.24;100.00
43818;BME280;29868;47.360;18.984;2023-05-08T06:03:40;100975.19;;;12.10;100.00
43818;BME280;29868;47.360;18.984;2023-05-08T06:06:05;100982.38;;;12.23;100.00
43818;BME280;29868;47.360;18.984;2023-05-08T06:08:31;100973.47;;;12.12;100.00
43818;BME280;29868;47.360;18.984;2023-05-08T06:10:56;100979.09;;;12.33;100.00
43818;BME280;29868;47.360;18.984;2023-05-08T06:13:22;100976.63;;;12.39;100.00
43818;BME280;29868;47.360;18.984;2023-05-08T06:15:49;100974.97;;;12.46;100.00
43818;BME280;29868;47.360;18.984;2023-05-08T06:18:15;100980.88;;;12.36;100.00
43818;BME280;29868;47.360;18.984;2023-05-08T06:20:41;100982.72;;;12.41;100.00
43818;BME280;29868;47.360;18.984;2023-05-08T06:23:06;100980.31;;;12.52;100.00
43818;BME280;29868;47.360;18.984;2023-05-08T06:25:32;100984.25;;;12.80;100.00
43818;BME280;29868;47.360;18.984;2023-05-08T06:27:57;100991.47;;;12.45;100.00
43818;BME280;29868;47.360;18.984;2023-05-08T06:30:22;100983.97;;;12.63;100.00
43818;BME280;29868;47.360;18.984;2023-05-08T06:32:48;100984.84;;;12.64;100.00
43818;BME280;29868;47.360;18.984;2023-05-08T06:35:13;100988.25;;;12.58;100.00
43818;BME280;29868;47.360;18.984;2023-05-08T06:37:44;100988.25;;;12.60;100.00
43818;BME280;29868;47.360;18.984;2023-05-08T06:40:11;100990.94;;;12.64;100.00
43818;BME280;29868;47.360;18.984;2023-05-08T06:42:36;100986.91;;;12.83;100.00
43818;BME280;29868;47.360;18.984;2023-05-08T06:45:02;100999.50;;;13.09;100.00
43818;BME280;29868;47.360;18.984;2023-05-08T06:47:28;100988.38;;;12.66;100.00
43818;BME280;29868;47.360;18.984;2023-05-08T06:49:53;100996.13;;;12.63;100.00
43818;BME280;29868;47.360;18.984;2023-05-08T06:52:19;101005.06;;;12.77;100.00
43818;BME280;29868;47.360;18.984;2023-05-08T06:54:45;100999.13;;;12.84;100.00
43818;BME280;29868;47.360;18.984;2023-05-08T06:57:10;100992.72;;;13.20;100.00
43818;BME280;29868;47.360;18.984;2023-05-08T06:59:38;101002.84;;;13.59;100.00
43818;BME280;29868;47.360;18.984;2023-05-08T07:02:04;101001.78;;;13.44;100.00
43818;BME280;29868;47.360;18.984;2023-05-08T07:04:29;101004.44;;;13.45;100.00
43818;BME280;29868;47.360;18.984;2023-05-08T07:06:54;101015.69;;;13.43;100.00
43818;BME280;29868;47.360;18.984;2023-05-08T07:09:20;101010.47;;;13.43;100.00
43818;BME280;29868;47.360;18.984;2023-05-08T07:11:45;101007.75;;;13.35;100.00
43818;BME280;29868;47.360;18.984;2023-05-08T07:14:12;101016.19;;;13.79;100.00
43818;BME280;29868;47.360;18.984;2023-05-08T07:16:38;101010.53;;;14.14;100.00
43818;BME280;29868;47.360;18.984;2023-05-08T07:19:03;101014.97;;;14.23;100.00
43818;BME280;29868;47.360;18.984;2023-05-08T07:21:28;101010.81;;;14.43;100.00
43818;BME280;29868;47.360;18.984;2023-05-08T07:23:54;101014.25;;;14.39;100.00
43818;BME280;29868;47.360;18.984;2023-05-08T07:26:20;101012.16;;;14.87;100.00
43818;BME280;29868;47.360;18.984;2023-05-08T07:28:47;101006.94;;;14.90;100.00
43818;BME280;29868;47.360;18.984;2023-05-08T07:31:12;101012.75;;;15.69;100.00
43818;BME280;29868;47.360;18.984;2023-05-08T07:33:38;101021.63;;;16.10;96.41
43818;BME280;29868;47.360;18.984;2023-05-08T07:36:03;101017.28;;;16.13;88.74
43818;BME280;29868;47.360;18.984;2023-05-08T07:38:29;101015.84;;;15.12;87.86
43818;BME280;29868;47.360;18.984;2023-05-08T07:40:54;101016.28;;;15.80;85.69
43818;BME280;29868;47.360;18.984;2023-05-08T07:43:24;101021.41;;;15.62;84.25
43818;BME280;29868;47.360;18.984;2023-05-08T07:45:50;101019.88;;;16.09;77.15
43818;BME280;29868;47.360;18.984;2023-05-08T07:48:16;101020.63;;;15.74;74.99
43818;BME280;29868;47.360;18.984;2023-05-08T07:50:41;101020.47;;;15.54;75.94
43818;BME280;29868;47.360;18.984;2023-05-08T07:53:07;101019.94;;;16.28;72.61
43818;BME280;29868;47.360;18.984;2023-05-08T07:55:32;101021.59;;;16.02;68.65
43818;BME280;29868;47.360;18.984;2023-05-08T07:57:58;101025.03;;;15.82;70.96
43818;BME280;29868;47.360;18.984;2023-05-08T08:00:24;101024.72;;;15.30;73.06
43818;BME280;29868;47.360;18.984;2023-05-08T08:02:51;101026.84;;;16.00;68.99
43818;BME280;29868;47.360;18.984;2023-05-08T08:05:17;101019.00;;;16.00;68.59
43818;BME280;29868;47.360;18.984;2023-05-08T08:07:43;101021.50;;;15.77;70.06
43818;BME280;29868;47.360;18.984;2023-05-08T08:10:08;101018.16;;;16.11;66.79
43818;BME280;29868;47.360;18.984;2023-05-08T08:12:34;101013.84;;;16.34;68.95
43818;BME280;29868;47.360;18.984;2023-05-08T08:14:59;101012.97;;;16.27;65.92
43818;BME280;29868;47.360;18.984;2023-05-08T08:17:24;101011.13;;;16.02;64.13
43818;BME280;29868;47.360;18.984;2023-05-08T08:19:50;101020.72;;;15.95;63.89
43818;BME280;29868;47.360;18.984;2023-05-08T08:22:15;101012.09;;;16.28;65.69
43818;BME280;29868;47.360;18.984;2023-05-08T08:24:41;101012.91;;;16.09;64.96
43818;BME280;29868;47.360;18.984;2023-05-08T08:27:06;101007.69;;;16.12;67.28
43818;BME280;29868;47.360;18.984;2023-05-08T08:29:32;101009.50;;;16.35;64.06
43818;BME280;29868;47.360;18.984;2023-05-08T08:31:58;101007.84;;;16.98;64.00
43818;BME280;29868;47.360;18.984;2023-05-08T08:34:24;101007.81;;;16.89;64.48
43818;BME280;29868;47.360;18.984;2023-05-08T08:36:50;101013.09;;;17.01;61.90
43818;BME280;29868;47.360;18.984;2023-05-08T08:39:15;101017.44;;;16.76;61.19
43818;BME280;29868;47.360;18.984;2023-05-08T08:41:41;101006.06;;;16.72;63.34
43818;BME280;29868;47.360;18.984;2023-05-08T08:44:06;101007.81;;;16.73;62.07
43818;BME280;29868;47.360;18.984;2023-05-08T08:46:32;101013.03;;;16.72;61.08
43818;BME280;29868;47.360;18.984;2023-05-08T08:48:58;101006.09;;;16.75;62.20
43818;BME280;29868;47.360;18.984;2023-05-08T08:51:27;101006.06;;;16.63;59.63
43818;BME280;29868;47.360;18.984;2023-05-08T08:54:09;101012.19;;;17.11;60.26
43818;BME280;29868;47.360;18.984;2023-05-08T08:56:36;101018.31;;;16.99;60.25
43818;BME280;29868;47.360;18.984;2023-05-08T08:59:04;101013.97;;;16.95;59.15
43818;BME280;29868;47.360;18.984;2023-05-08T09:01:32;101012.22;;;16.96;58.00
43818;BME280;29868;47.360;18.984;2023-05-08T09:04:00;101005.22;;;17.09;58.80
43818;BME280;29868;47.360;18.984;2023-05-08T09:06:26;101013.94;;;17.00;59.47
43818;BME280;29868;47.360;18.984;2023-05-08T09:08:54;101014.78;;;17.51;58.41
43818;BME280;29868;47.360;18.984;2023-05-08T09:11:20;101009.59;;;17.20;55.48
43818;BME280;29868;47.360;18.984;2023-05-08T09:13:46;101003.47;;;17.06;60.53
43818;BME280;29868;47.360;18.984;2023-05-08T09:16:11;101010.41;;;17.47;58.39
43818;BME280;29868;47.360;18.984;2023-05-08T09:18:36;100997.19;;;17.79;56.52
43818;BME280;29868;47.360;18.984;2023-05-08T09:21:05;100999.88;;;17.45;56.78
43818;BME280;29868;47.360;18.984;2023-05-08T09:23:30;101003.44;;;17.23;56.66
43818;BME280;29868;47.360;18.984;2023-05-08T09:25:56;101004.28;;;17.45;56.71
43818;BME280;29868;47.360;18.984;2023-05-08T09:28:23;100999.97;;;17.16;56.47
43818;BME280;29868;47.360;18.984;2023-05-08T09:30:53;100999.06;;;17.16;56.24
43818;BME280;29868;47.360;18.984;2023-05-08T09:33:20;100992.06;;;17.29;57.62
43818;BME280;29868;47.360;18.984;2023-05-08T09:35:46;100989.34;;;17.64;54.35
43818;BME280;29868;47.360;18.984;2023-05-08T09:38:35;100994.53;;;17.87;53.42
43818;BME280;29868;47.360;18.984;2023-05-08T09:41:15;100991.66;;;18.33;55.98
43818;BME280;29868;47.360;18.984;2023-05-08T09:43:42;100990.94;;;18.11;50.23
43818;BME280;29868;47.360;18.984;2023-05-08T09:46:24;100995.16;;;18.35;48.78
43818;BME280;29868;47.360;18.984;2023-05-08T09:48:59;100987.34;;;18.24;49.33
43818;BME280;29868;47.360;18.984;2023-05-08T09:51:27;100983.16;;;17.85;49.67
43818;BME280;29868;47.360;18.984;2023-05-08T09:53:55;100980.34;;;18.26;51.36
43818;BME280;29868;47.360;18.984;2023-05-08T09:56:34;100984.44;;;18.65;49.97
43818;BME280;29868;47.360;18.984;2023-05-08T09:59:04;100981.72;;;18.78;48.36
43818;BME280;29868;47.360;18.984;2023-05-08T10:01:36;100982.66;;;18.74;48.33
43818;BME280;29868;47.360;18.984;2023-05-08T10:04:03;100986.19;;;18.63;46.56
43818;BME280;29868;47.360;18.984;2023-05-08T10:06:30;100977.59;;;18.37;45.83
43818;BME280;29868;47.360;18.984;2023-05-08T10:09:12;100973.31;;;18.23;46.67
43818;BME280;29868;47.360;18.984;2023-05-08T10:11:39;100982.50;;;18.89;46.09
43818;BME280;29868;47.360;18.984;2023-05-08T10:14:05;100973.00;;;18.66;44.39
43818;BME280;29868;47.360;18.984;2023-05-08T10:16:36;100966.84;;;18.77;46.81
43818;BME280;29868;47.360;18.984;2023-05-08T10:19:11;100970.38;;;18.76;46.92
43818;BME280;29868;47.360;18.984;2023-05-08T10:21:40;100961.16;;;19.19;45.76
43818;BME280;29868;47.360;18.984;2023-05-08T10:24:12;100971.69;;;19.19;46.87
43818;BME280;29868;47.360;18.984;2023-05-08T10:26:41;100953.44;;;19.01;43.82
43818;BME280;29868;47.360;18.984;2023-05-08T10:29:16;100958.81;;;18.92;44.39
43818;BME280;29868;47.360;18.984;2023-05-08T10:31:43;100958.91;;;18.83;44.86
43818;BME280;29868;47.360;18.984;2023-05-08T10:34:18;100952.41;;;19.17;43.26
43818;BME280;29868;47.360;18.984;2023-05-08T10:36:45;100956.06;;;19.01;44.02
43818;BME280;29868;47.360;18.984;2023-05-08T10:39:13;100957.72;;;19.13;44.90
43818;BME280;29868;47.360;18.984;2023-05-08T10:41:40;100955.28;;;18.93;43.27
43818;BME280;29868;47.360;18.984;2023-05-08T10:44:06;100951.03;;;18.80;43.48
43818;BME280;29868;47.360;18.984;2023-05-08T10:49:28;100941.28;;;19.69;44.58
43818;BME280;29868;47.360;18.984;2023-05-08T10:52:18;100949.88;;;19.87;44.65
43818;BME280;29868;47.360;18.984;2023-05-08T10:57:30;100946.19;;;19.23;42.04
43818;BME280;29868;47.360;18.984;2023-05-08T10:59:56;100934.84;;;19.16;43.05
43818;BME280;29868;47.360;18.984;2023-05-08T11:02:26;100939.22;;;19.19;44.45
43818;BME280;29868;47.360;18.984;2023-05-08T11:04:54;100947.19;;;19.14;44.08
43818;BME280;29868;47.360;18.984;2023-05-08T11:07:28;100931.22;;;19.30;44.63
43818;BME280;29868;47.360;18.984;2023-05-08T11:09:54;100933.63;;;19.47;42.59
43818;BME280;29868;47.360;18.984;2023-05-08T11:12:30;100931.91;;;19.45;43.24
43818;BME280;29868;47.360;18.984;2023-05-08T11:15:03;100933.06;;;19.20;43.49
43818;BME280;29868;47.360;18.984;2023-05-08T11:17:31;100930.97;;;19.51;42.55
43818;BME280;29868;47.360;18.984;2023-05-08T11:20:03;100926.38;;;19.70;43.73
43818;BME280;29868;47.360;18.984;2023-05-08T11:22:33;100924.72;;;19.63;43.02
43818;BME280;29868;47.360;18.984;2023-05-08T11:25:02;100932.75;;;19.49;43.65
43818;BME280;29868;47.360;18.984;2023-05-08T11:28:24;100922.03;;;19.61;43.53
43818;BME280;29868;47.360;18.984;2023-05-08T11:30:32;100921.34;;;19.49;41.45
43818;BME280;29868;47.360;18.984;2023-05-08T11:41:00;100921.06;;;19.72;41.78
43818;BME280;29868;47.360;18.984;2023-05-08T11:46:05;100913.34;;;20.21;42.16
43818;BME280;29868;47.360;18.984;2023-05-08T11:48:34;100910.38;;;20.41;41.43
43818;BME280;29868;47.360;18.984;2023-05-08T11:51:00;100912.59;;;20.13;41.71
43818;BME280;29868;47.360;18.984;2023-05-08T11:53:27;100915.03;;;20.25;43.38
43818;BME280;29868;47.360;18.984;2023-05-08T11:55:52;100911.72;;;20.11;40.07
43818;BME280;29868;47.360;18.984;2023-05-08T11:58:18;100907.31;;;20.13;39.87
43818;BME280;29868;47.360;18.984;2023-05-08T12:00:45;100897.22;;;20.39;40.51
43818;BME280;29868;47.360;18.984;2023-05-08T12:03:16;100906.75;;;20.48;40.51
43818;BME280;29868;47.360;18.984;2023-05-08T12:05:42;100899.78;;;20.46;39.74
43818;BME280;29868;47.360;18.984;2023-05-08T12:08:08;100909.72;;;20.84;40.35
43818;BME280;29868;47.360;18.984;2023-05-08T12:10:48;100904.34;;;20.87;38.67
43818;BME280;29868;47.360;18.984;2023-05-08T12:13:28;100909.81;;;20.78;39.00
43818;BME280;29868;47.360;18.984;2023-05-08T12:18:20;100901.16;;;20.70;39.03
43818;BME280;29868;47.360;18.984;2023-05-08T12:20:53;100903.56;;;20.82;37.81
43818;BME280;29868;47.360;18.984;2023-05-08T12:23:21;100907.19;;;20.21;39.38
43818;BME280;29868;47.360;18.984;2023-05-08T12:25:47;100910.50;;;20.35;37.63
43818;BME280;29868;47.360;18.984;2023-05-08T12:28:15;100903.88;;;20.65;38.72
43818;BME280;29868;47.360;18.984;2023-05-08T12:30:41;100904.66;;;20.70;37.46
43818;BME280;29868;47.360;18.984;2023-05-08T12:33:07;100910.53;;;20.87;36.94
43818;BME280;29868;47.360;18.984;2023-05-08T12:35:33;100903.78;;;20.68;36.55
43818;BME280;29868;47.360;18.984;2023-05-08T12:38:02;100906.31;;;20.76;36.98
43818;BME280;29868;47.360;18.984;2023-05-08T12:40:30;100913.34;;;20.77;36.36
43818;BME280;29868;47.360;18.984;2023-05-08T12:42:56;100917.34;;;20.99;37.15
43818;BME280;29868;47.360;18.984;2023-05-08T12:45:29;100911.44;;;20.85;36.33
43818;BME280;29868;47.360;18.984;2023-05-08T12:48:02;100911.06;;;21.05;37.50
43818;BME280;29868;47.360;18.984;2023-05-08T12:50:28;100916.66;;;20.34;34.61
43818;BME280;29868;47.360;18.984;2023-05-08T12:53:05;100912.97;;;20.44;35.61
43818;BME280;29868;47.360;18.984;2023-05-08T12:55:33;100921.91;;;20.91;35.38
43818;BME280;29868;47.360;18.984;2023-05-08T13:00:41;100918.16;;;21.03;36.69
43818;BME280;29868;47.360;18.984;2023-05-08T13:03:08;100908.06;;;21.23;38.48
43818;BME280;29868;47.360;18.984;2023-05-08T13:05:36;100907.69;;;21.43;36.94
43818;BME280;29868;47.360;18.984;2023-05-08T13:08:03;100912.31;;;21.32;35.94
43818;BME280;29868;47.360;18.984;2023-05-08T13:10:53;100907.25;;;21.65;36.16
43818;BME280;29868;47.360;18.984;2023-05-08T13:13:24;100905.28;;;21.31;35.82
43818;BME280;29868;47.360;18.984;2023-05-08T13:15:51;100907.50;;;21.07;33.81
43818;BME280;29868;47.360;18.984;2023-05-08T13:18:17;100904.47;;;21.27;36.07
43818;BME280;29868;47.360;18.984;2023-05-08T13:20:43;100907.41;;;21.12;36.52
43818;BME280;29868;47.360;18.984;2023-05-08T13:23:09;100907.06;;;21.29;36.62